createdAt,value
2023-05-03T00:00:46.486Z,84.84
2023-05-03T00:01:46.499Z,84.54
2023-05-03T00:02:46.562Z,84.34
2023-05-03T00:03:46.465Z,84.54
2023-05-03T00:04:46.618Z,84.54
2023-05-03T00:05:46.539Z,84.03
2023-05-03T00:06:46.542Z,84.54
2023-05-03T00:07:46.464Z,84.74
2023-05-03T00:08:46.471Z,84.95
2023-05-03T00:09:46.457Z,84.54
2023-05-03T00:10:46.468Z,84.84
2023-05-03T00:11:46.461Z,84.54
2023-05-03T00:12:46.470Z,84.13
2023-05-03T00:13:46.456Z,83.62
2023-05-03T00:14:46.455Z,84.44
2023-05-03T00:15:46.458Z,85.21
2023-05-03T00:16:46.507Z,84.74
2023-05-03T00:17:46.510Z,84.84
2023-05-03T00:18:47.785Z,84.23
2023-05-03T00:19:46.453Z,84.54
2023-05-03T00:20:46.460Z,84.23
2023-05-03T00:21:46.458Z,84.44
2023-05-03T00:22:46.459Z,83.83
2023-05-03T00:23:46.453Z,83.93
2023-05-03T00:24:46.464Z,84.03
2023-05-03T00:25:46.453Z,84.64
2023-05-03T00:26:46.452Z,84.84
2023-05-03T00:27:46.458Z,85.05
2023-05-03T00:28:46.456Z,83.62
2023-05-03T00:29:46.452Z,84.74
2023-05-03T00:30:46.502Z,84.54
2023-05-03T00:31:46.463Z,84.84
2023-05-03T00:32:46.580Z,84.13
2023-05-03T00:33:46.456Z,84.23
2023-05-03T00:34:46.465Z,84.78
2023-05-03T00:35:46.449Z,84.38
2023-05-03T00:36:46.450Z,84.58
2023-05-03T00:37:46.451Z,84.28
2023-05-03T00:38:46.462Z,84.42
2023-05-03T00:39:46.465Z,84.31
2023-05-03T00:40:46.461Z,84.92
2023-05-03T00:41:46.448Z,85.03
2023-05-03T00:42:46.480Z,84.21
2023-05-03T00:43:46.457Z,84.52
2023-05-03T00:44:46.506Z,84.72
2023-05-03T00:45:46.444Z,84.31
2023-05-03T00:46:46.502Z,84.92
2023-05-03T00:47:46.520Z,85.13
2023-05-03T00:48:46.469Z,84.21
2023-05-03T00:49:46.444Z,83.50
2023-05-03T00:50:46.455Z,85.13
2023-05-03T00:51:46.440Z,84.52
2023-05-03T00:52:46.448Z,85.23
2023-05-03T00:53:46.440Z,84.52
2023-05-03T00:54:46.439Z,84.62
2023-05-03T00:55:46.446Z,84.76
2023-05-03T00:56:51.600Z,84.35
2023-05-03T00:57:46.442Z,84.19
2023-05-03T00:58:46.441Z,84.86
2023-05-03T00:59:46.437Z,84.35
2023-05-03T01:00:46.445Z,84.50
2023-05-03T01:01:46.455Z,84.56
2023-05-03T01:02:46.678Z,84.66
2023-05-03T01:03:46.718Z,85.47
2023-05-03T01:04:46.457Z,85.17
2023-05-03T01:05:46.440Z,85.37
2023-05-03T01:06:46.483Z,85.72
2023-05-03T01:07:46.441Z,85.31
2023-05-03T01:08:46.441Z,85.72
2023-05-03T01:09:46.430Z,85.21
2023-05-03T01:10:46.475Z,85.35
2023-05-03T01:11:46.445Z,85.31
2023-05-03T01:12:46.432Z,86.02
2023-05-03T01:13:46.425Z,86.83
2023-05-03T01:14:46.422Z,86.98
2023-05-03T01:15:46.468Z,86.13
2023-05-03T01:16:46.424Z,85.86
2023-05-03T01:17:46.485Z,86.98
2023-05-03T01:18:46.424Z,86.57
2023-05-03T01:19:46.418Z,86.37
2023-05-03T01:20:46.445Z,85.86
2023-05-03T01:21:46.421Z,86.88
2023-05-03T01:22:46.422Z,86.57
2023-05-03T01:23:46.421Z,86.57
2023-05-03T01:24:46.427Z,86.92
2023-05-03T01:25:46.409Z,86.68
2023-05-03T01:26:46.415Z,86.82
2023-05-03T01:27:46.417Z,86.92
2023-05-03T01:28:46.416Z,86.92
2023-05-03T01:29:46.414Z,87.32
2023-05-03T01:30:46.416Z,86.82
2023-05-03T01:31:46.520Z,87.26
2023-05-03T01:32:46.444Z,86.86
2023-05-03T01:33:46.414Z,87.84
2023-05-03T01:34:46.431Z,87.06
2023-05-03T01:35:46.411Z,87.67
2023-05-03T01:36:46.435Z,87.47
2023-05-03T01:37:46.417Z,87.67
2023-05-03T01:38:46.405Z,87.51
2023-05-03T01:39:46.404Z,88.08
2023-05-03T01:40:46.411Z,87.61
2023-05-03T01:41:46.405Z,88.02
2023-05-03T01:42:46.418Z,88.32
2023-05-03T01:43:46.418Z,88.93
2023-05-03T01:44:46.416Z,88.32
2023-05-03T01:45:46.453Z,88.63
2023-05-03T01:46:46.407Z,89.18
2023-05-03T01:47:46.433Z,89.08
2023-05-03T01:48:46.405Z,88.98
2023-05-03T01:49:46.399Z,89.08
2023-05-03T01:50:46.402Z,89.28
2023-05-03T01:51:46.391Z,88.98
2023-05-03T01:52:46.430Z,88.98
2023-05-03T01:53:46.396Z,88.88
2023-05-03T01:54:46.398Z,88.57
2023-05-03T01:55:46.394Z,89.32
2023-05-03T01:56:46.393Z,89.12
2023-05-03T01:57:46.394Z,89.53
2023-05-03T01:58:46.397Z,89.73
2023-05-03T01:59:46.391Z,89.63
2023-05-03T02:00:46.444Z,90.04
2023-05-03T02:01:46.387Z,89.63
2023-05-03T02:02:46.437Z,89.63
2023-05-03T02:03:46.386Z,90.08
2023-05-03T02:04:46.444Z,89.94
2023-05-03T02:05:46.408Z,89.88
2023-05-03T02:06:46.445Z,89.94
2023-05-03T02:07:46.387Z,90.35
2023-05-03T02:08:46.407Z,90.29
2023-05-03T02:09:46.381Z,90.70
2023-05-03T02:10:46.398Z,90.39
2023-05-03T02:11:46.373Z,90.19
2023-05-03T02:12:46.375Z,90.59
2023-05-03T02:13:46.378Z,90.19
2023-05-03T02:14:46.375Z,90.59
2023-05-03T02:15:46.371Z,91.05
2023-05-03T02:16:46.418Z,91.25
2023-05-03T02:17:46.394Z,91.05
2023-05-03T02:18:46.379Z,91.15
2023-05-03T02:19:46.385Z,91.05
2023-05-03T02:20:46.365Z,90.94
2023-05-03T02:21:46.365Z,91.25
2023-05-03T02:22:46.368Z,91.15
2023-05-03T02:23:46.363Z,91.25
2023-05-03T02:24:46.384Z,91.96
2023-05-03T02:25:46.357Z,91.56
2023-05-03T02:26:46.360Z,91.46
2023-05-03T02:27:46.354Z,91.56
2023-05-03T02:28:46.359Z,91.46
2023-05-03T02:29:46.354Z,91.66
2023-05-03T02:30:46.357Z,91.96
2023-05-03T02:31:46.351Z,91.25
2023-05-03T02:32:46.417Z,91.76
2023-05-03T02:33:46.346Z,91.70
2023-05-03T02:34:46.352Z,91.66
2023-05-03T02:35:46.344Z,92.42
2023-05-03T02:36:46.349Z,92.47
2023-05-03T02:37:46.359Z,91.86
2023-05-03T02:38:46.342Z,92.11
2023-05-03T02:39:46.342Z,91.86
2023-05-03T02:40:46.364Z,92.42
2023-05-03T02:41:46.339Z,92.62
2023-05-03T02:42:46.341Z,92.42
2023-05-03T02:43:46.331Z,92.21
2023-05-03T02:44:46.415Z,92.32
2023-05-03T02:45:46.338Z,92.93
2023-05-03T02:46:46.479Z,93.13
2023-05-03T02:47:46.370Z,92.21
2023-05-03T02:48:46.336Z,93.03
2023-05-03T02:49:46.329Z,92.32
2023-05-03T02:50:46.324Z,92.05
2023-05-03T02:51:46.324Z,93.07
2023-05-03T02:52:46.325Z,92.97
2023-05-03T02:53:46.320Z,92.97
2023-05-03T02:54:46.316Z,93.69
2023-05-03T02:55:46.320Z,92.87
2023-05-03T02:56:46.328Z,93.28
2023-05-03T02:57:46.317Z,93.59
2023-05-03T02:58:46.310Z,93.28
2023-05-03T02:59:46.317Z,92.66
2023-05-03T03:00:46.306Z,93.18
2023-05-03T03:01:46.335Z,93.48
2023-05-03T03:02:46.491Z,93.18
2023-05-03T03:03:46.444Z,93.79
2023-05-03T03:04:46.303Z,93.79
2023-05-03T03:05:46.302Z,93.07
2023-05-03T03:06:46.385Z,93.38
2023-05-03T03:07:46.296Z,93.99
2023-05-03T03:08:46.293Z,93.99
2023-05-03T03:09:46.307Z,93.48
2023-05-03T03:10:46.289Z,93.89
2023-05-03T03:11:46.293Z,93.48
2023-05-03T03:12:46.316Z,93.43
2023-05-03T03:13:46.304Z,93.63
2023-05-03T03:14:46.293Z,94.14
2023-05-03T03:15:46.429Z,93.73
2023-05-03T03:16:46.283Z,94.04
2023-05-03T03:17:46.286Z,94.34
2023-05-03T03:18:46.287Z,93.84
2023-05-03T03:19:46.280Z,93.52
2023-05-03T03:20:46.280Z,93.52
2023-05-03T03:21:46.276Z,93.89
2023-05-03T03:22:46.284Z,93.73
2023-05-03T03:23:46.442Z,93.12
2023-05-03T03:24:46.272Z,93.43
2023-05-03T03:25:46.282Z,93.84
2023-05-03T03:26:46.275Z,94.14
2023-05-03T03:27:46.270Z,93.84
2023-05-03T03:28:46.312Z,94.14
2023-05-03T03:29:46.267Z,93.84
2023-05-03T03:30:46.394Z,94.24
2023-05-03T03:31:46.337Z,94.24
2023-05-03T03:32:46.305Z,93.52
2023-05-03T03:33:46.305Z,94.24
2023-05-03T03:34:46.253Z,94.24
2023-05-03T03:35:46.290Z,93.73
2023-05-03T03:36:46.251Z,94.45
2023-05-03T03:37:46.251Z,94.24
2023-05-03T03:38:46.262Z,93.52
2023-05-03T03:39:46.255Z,93.84
2023-05-03T03:40:46.267Z,94.29
2023-05-03T03:41:46.252Z,94.18
2023-05-03T03:42:46.241Z,94.18
2023-05-03T03:43:46.252Z,94.39
2023-05-03T03:44:46.258Z,94.39
2023-05-03T03:45:46.239Z,95.00
2023-05-03T03:46:46.295Z,94.90
2023-05-03T03:47:46.344Z,94.90
2023-05-03T03:48:46.237Z,95.10
2023-05-03T03:49:46.254Z,95.31
2023-05-03T03:50:46.230Z,95.05
2023-05-03T03:51:46.232Z,95.41
2023-05-03T03:52:46.269Z,95.46
2023-05-03T03:53:46.232Z,95.00
2023-05-03T03:54:46.221Z,95.41
2023-05-03T03:55:46.220Z,95.41
2023-05-03T03:56:46.216Z,94.90
2023-05-03T03:57:46.218Z,94.90
2023-05-03T03:58:46.230Z,94.59
2023-05-03T03:59:46.220Z,94.70
2023-05-03T04:00:46.235Z,94.70
2023-05-03T04:01:46.233Z,95.00
2023-05-03T04:02:47.311Z,94.45
2023-05-03T04:03:46.345Z,94.65
2023-05-03T04:04:46.202Z,95.00
2023-05-03T04:05:46.203Z,94.70
2023-05-03T04:06:46.336Z,94.24
2023-05-03T04:07:46.238Z,94.70
2023-05-03T04:08:46.203Z,94.45
2023-05-03T04:09:46.198Z,94.29
2023-05-03T04:10:46.188Z,94.24
2023-05-03T04:11:46.189Z,94.70
2023-05-03T04:12:46.191Z,94.29
2023-05-03T04:13:46.192Z,94.14
2023-05-03T04:14:46.181Z,94.45
2023-05-03T04:15:46.186Z,94.45
2023-05-03T04:16:46.254Z,94.34
2023-05-03T04:17:46.209Z,94.45
2023-05-03T04:18:46.177Z,94.24
2023-05-03T04:19:46.178Z,94.04
2023-05-03T04:20:46.177Z,94.14
2023-05-03T04:21:46.187Z,94.39
2023-05-03T04:22:46.181Z,94.24
2023-05-03T04:23:46.167Z,94.24
2023-05-03T04:24:46.168Z,94.24
2023-05-03T04:25:46.178Z,94.34
2023-05-03T04:26:46.184Z,94.34
2023-05-03T04:27:46.176Z,94.24
2023-05-03T04:28:46.178Z,94.24
2023-05-03T04:29:46.171Z,94.39
2023-05-03T04:30:46.223Z,93.32
2023-05-03T04:31:46.162Z,94.24
2023-05-03T04:32:46.214Z,94.45
2023-05-03T04:33:46.156Z,94.55
2023-05-03T04:34:48.487Z,94.70
2023-05-03T04:35:46.151Z,94.65
2023-05-03T04:36:46.149Z,94.34
2023-05-03T04:37:46.150Z,94.34
2023-05-03T04:38:46.148Z,94.14
2023-05-03T04:39:46.166Z,94.14
2023-05-03T04:40:46.141Z,94.34
2023-05-03T04:41:46.137Z,94.34
2023-05-03T04:42:46.146Z,94.14
2023-05-03T04:43:46.141Z,94.34
2023-05-03T04:44:46.130Z,94.45
2023-05-03T04:45:46.134Z,94.24
2023-05-03T04:46:47.605Z,94.34
2023-05-03T04:47:46.146Z,94.24
2023-05-03T04:48:46.144Z,94.34
2023-05-03T04:49:46.120Z,94.34
2023-05-03T04:50:46.132Z,93.84
2023-05-03T04:51:46.120Z,94.24
2023-05-03T04:52:46.123Z,94.14
2023-05-03T04:53:46.117Z,94.85
2023-05-03T04:54:46.113Z,93.73
2023-05-03T04:55:46.113Z,93.18
2023-05-03T04:56:46.107Z,93.99
2023-05-03T04:57:46.110Z,93.89
2023-05-03T04:58:46.103Z,93.38
2023-05-03T04:59:46.123Z,94.10
2023-05-03T05:00:46.098Z,93.89
2023-05-03T05:01:46.147Z,93.89
2023-05-03T05:02:46.126Z,93.28
2023-05-03T05:03:46.243Z,93.89
2023-05-03T05:04:46.112Z,93.18
2023-05-03T05:05:46.098Z,93.13
2023-05-03T05:06:46.134Z,93.99
2023-05-03T05:07:46.083Z,93.65
2023-05-03T05:08:46.081Z,93.74
2023-05-03T05:09:46.086Z,94.06
2023-05-03T05:10:46.091Z,93.85
2023-05-03T05:11:46.086Z,93.85
2023-05-03T05:12:46.078Z,93.03
2023-05-03T05:13:46.078Z,93.54
2023-05-03T05:14:46.074Z,93.50
2023-05-03T05:15:46.072Z,93.03
2023-05-03T05:16:46.228Z,93.70
2023-05-03T05:17:46.200Z,93.19
2023-05-03T05:18:46.073Z,92.99
2023-05-03T05:19:46.075Z,92.42
2023-05-03T05:20:46.085Z,92.72
2023-05-03T05:21:46.067Z,92.93
2023-05-03T05:22:46.060Z,92.62
2023-05-03T05:23:46.059Z,92.68
2023-05-03T05:24:46.054Z,92.99
2023-05-03T05:25:46.056Z,91.96
2023-05-03T05:26:46.050Z,92.47
2023-05-03T05:27:46.051Z,92.47
2023-05-03T05:28:46.059Z,91.82
2023-05-03T05:29:46.061Z,92.54
2023-05-03T05:30:46.057Z,91.82
2023-05-03T05:31:46.087Z,91.52
2023-05-03T05:32:46.075Z,92.54
2023-05-03T05:33:46.040Z,92.23
2023-05-03T05:34:46.038Z,92.54
2023-05-03T05:35:46.036Z,92.13
2023-05-03T05:36:46.057Z,91.52
2023-05-03T05:37:46.046Z,91.47
2023-05-03T05:38:46.036Z,91.16
2023-05-03T05:39:46.030Z,91.53
2023-05-03T05:40:46.033Z,91.22
2023-05-03T05:41:46.027Z,91.22
2023-05-03T05:42:46.022Z,90.96
2023-05-03T05:43:46.045Z,91.16
2023-05-03T05:44:46.021Z,91.02
2023-05-03T05:45:46.036Z,91.02
2023-05-03T05:46:46.047Z,91.08
2023-05-03T05:47:46.040Z,90.81
2023-05-03T05:48:46.007Z,90.41
2023-05-03T05:49:46.014Z,89.96
2023-05-03T05:50:46.014Z,90.88
2023-05-03T05:51:46.009Z,90.67
2023-05-03T05:52:46.042Z,90.47
2023-05-03T05:53:46.011Z,89.86
2023-05-03T05:54:46.021Z,90.42
2023-05-03T05:55:46.008Z,90.53
2023-05-03T05:56:46.003Z,90.94
2023-05-03T05:57:46.011Z,90.89
2023-05-03T05:58:46.003Z,90.42
2023-05-03T05:59:46.000Z,90.18
2023-05-03T06:00:45.997Z,89.77
2023-05-03T06:01:46.062Z,90.69
2023-05-03T06:02:46.045Z,90.69
2023-05-03T06:03:45.999Z,90.08
2023-05-03T06:04:46.007Z,89.83
2023-05-03T06:05:46.199Z,89.63
2023-05-03T06:06:46.042Z,89.22
2023-05-03T06:07:45.994Z,89.42
2023-05-03T06:08:46.012Z,89.32
2023-05-03T06:09:46.007Z,90.14
2023-05-03T06:10:45.997Z,89.63
2023-05-03T06:11:45.984Z,89.28
2023-05-03T06:12:45.988Z,89.18
2023-05-03T06:13:45.985Z,88.77
2023-05-03T06:14:59.068Z,88.77
2023-05-03T06:15:45.979Z,88.22
2023-05-03T06:16:45.993Z,88.42
2023-05-03T06:17:46.031Z,87.55
2023-05-03T06:18:45.981Z,87.45
2023-05-03T06:19:45.982Z,87.35
2023-05-03T06:20:45.977Z,87.41
2023-05-03T06:21:45.997Z,87.41
2023-05-03T06:22:45.985Z,87.26
2023-05-03T06:23:45.970Z,87.57
2023-05-03T06:24:45.989Z,87.16
2023-05-03T06:25:45.971Z,87.23
2023-05-03T06:26:45.990Z,86.92
2023-05-03T06:27:45.963Z,86.82
2023-05-03T06:28:45.962Z,86.71
2023-05-03T06:29:45.960Z,85.80
2023-05-03T06:30:45.988Z,86.10
2023-05-03T06:31:46.044Z,86.10
2023-05-03T06:32:45.999Z,85.76
2023-05-03T06:33:45.960Z,86.16
2023-05-03T06:34:45.952Z,86.88
2023-05-03T06:35:45.952Z,86.37
2023-05-03T06:36:45.953Z,85.82
2023-05-03T06:37:45.961Z,86.53
2023-05-03T06:38:45.956Z,86.43
2023-05-03T06:39:45.953Z,85.68
2023-05-03T06:40:45.972Z,85.17
2023-05-03T06:41:45.950Z,85.17
2023-05-03T06:42:45.944Z,84.72
2023-05-03T06:43:45.951Z,85.13
2023-05-03T06:44:45.953Z,84.32
2023-05-03T06:45:45.947Z,84.42
2023-05-03T06:46:45.970Z,84.52
2023-05-03T06:47:46.026Z,84.01
2023-05-03T06:48:45.953Z,83.98
2023-05-03T06:49:45.953Z,84.18
2023-05-03T06:50:45.936Z,83.47
2023-05-03T06:51:45.947Z,84.58
2023-05-03T06:52:45.949Z,84.04
2023-05-03T06:53:45.935Z,84.14
2023-05-03T06:54:45.940Z,84.04
2023-05-03T06:55:45.940Z,82.89
2023-05-03T06:56:45.955Z,82.07
2023-05-03T06:57:45.933Z,82.01
2023-05-03T06:58:45.934Z,81.91
2023-05-03T06:59:45.937Z,82.11
2023-05-03T07:00:45.929Z,82.62
2023-05-03T07:01:45.990Z,82.89
2023-05-03T07:02:46.017Z,82.78
2023-05-03T07:03:46.021Z,82.64
2023-05-03T07:04:45.929Z,81.83
2023-05-03T07:05:45.923Z,81.52
2023-05-03T07:06:55.887Z,81.02
2023-05-03T07:07:45.932Z,80.27
2023-05-03T07:08:46.127Z,80.78
2023-05-03T07:09:45.939Z,82.46
2023-05-03T07:10:45.935Z,80.47
2023-05-03T07:11:45.930Z,80.24
2023-05-03T07:12:46.089Z,79.93
2023-05-03T07:13:45.923Z,80.00
2023-05-03T07:14:45.924Z,81.17
2023-05-03T07:15:45.994Z,79.72
2023-05-03T07:16:45.968Z,78.81
2023-05-03T07:17:45.963Z,78.57
2023-05-03T07:18:45.921Z,77.49
2023-05-03T07:19:45.919Z,77.04
2023-05-03T07:20:45.935Z,74.59
2023-05-03T07:21:45.922Z,74.52
2023-05-03T07:22:45.923Z,72.41
2023-05-03T07:23:45.922Z,71.03
2023-05-03T07:24:45.943Z,68.32
2023-05-03T07:25:45.922Z,68.26
2023-05-03T07:26:47.794Z,66.49
2023-05-03T07:27:45.918Z,65.72
2023-05-03T07:28:45.996Z,65.86
2023-05-03T07:29:45.919Z,65.00
2023-05-03T07:30:45.923Z,63.94
2023-05-03T07:31:45.924Z,62.08
2023-05-03T07:32:46.081Z,61.66
2023-05-03T07:33:45.980Z,61.93
2023-05-03T07:34:45.923Z,61.47
2023-05-03T07:35:45.933Z,60.27
2023-05-03T07:36:45.924Z,59.75
2023-05-03T07:37:45.918Z,59.30
2023-05-03T07:38:45.938Z,59.19
2023-05-03T07:39:45.931Z,60.09
2023-05-03T07:40:45.928Z,59.56
2023-05-03T07:41:45.930Z,57.38
2023-05-03T07:42:45.929Z,58.87
2023-05-03T07:43:45.927Z,59.17
2023-05-03T07:44:46.240Z,59.21
2023-05-03T07:45:45.949Z,56.83
2023-05-03T07:46:45.933Z,59.08
2023-05-03T07:47:45.993Z,57.00
2023-05-03T07:48:45.956Z,58.86
2023-05-03T07:49:45.940Z,58.30
2023-05-03T07:50:45.940Z,56.52
2023-05-03T07:51:45.946Z,57.02
2023-05-03T07:52:45.948Z,56.42
2023-05-03T07:53:45.942Z,55.96
2023-05-03T07:54:46.004Z,56.85
2023-05-03T07:55:45.947Z,56.72
2023-05-03T07:56:45.957Z,56.07
2023-05-03T07:57:45.950Z,56.46
2023-05-03T07:59:45.971Z,54.66
2023-05-03T08:00:46.015Z,55.62
2023-05-03T08:01:45.965Z,54.93
2023-05-03T08:02:46.102Z,55.62
2023-05-03T08:03:46.178Z,53.62
2023-05-03T08:04:46.182Z,54.41
2023-05-03T08:05:46.086Z,54.21
2023-05-03T08:06:46.093Z,53.55
2023-05-03T08:07:45.985Z,56.81
2023-05-03T08:08:45.997Z,55.62
2023-05-03T08:09:46.004Z,53.96
2023-05-03T08:10:46.001Z,53.32
2023-05-03T08:11:46.010Z,53.96
2023-05-03T08:12:46.020Z,52.28
2023-05-03T08:13:46.018Z,53.54
2023-05-03T08:14:46.028Z,51.20
2023-05-03T08:15:46.085Z,53.35
2023-05-03T08:16:46.064Z,53.85
2023-05-03T08:17:46.070Z,56.55
2023-05-03T08:18:46.050Z,55.46
2023-05-03T08:19:46.055Z,55.78
2023-05-03T08:20:46.058Z,56.30
2023-05-03T08:21:46.071Z,56.09
2023-05-03T08:22:46.079Z,56.59
2023-05-03T08:23:46.087Z,56.63
2023-05-03T08:24:46.090Z,56.74
2023-05-03T08:25:46.101Z,54.91
2023-05-03T08:26:46.105Z,54.35
2023-05-03T08:27:46.115Z,54.84
2023-05-03T08:28:46.122Z,54.64
2023-05-03T08:29:46.133Z,54.86
2023-05-03T08:30:46.135Z,54.77
2023-05-03T08:31:46.149Z,55.04
2023-05-03T08:32:46.231Z,55.04
2023-05-03T08:33:46.154Z,53.60
2023-05-03T08:34:46.171Z,54.86
2023-05-03T08:35:48.618Z,55.03
2023-05-03T08:36:46.191Z,54.90
2023-05-03T08:37:46.201Z,53.62
2023-05-03T08:38:46.206Z,53.72
2023-05-03T08:39:46.205Z,53.39
2023-05-03T08:40:46.221Z,54.71
2023-05-03T08:41:46.239Z,53.15
2023-05-03T08:42:46.241Z,52.78
2023-05-03T08:43:46.243Z,53.42
2023-05-03T08:44:46.255Z,52.39
2023-05-03T08:45:46.254Z,54.39
2023-05-03T08:46:46.321Z,55.02
2023-05-03T08:47:46.326Z,55.76
2023-05-03T08:48:46.417Z,56.83
2023-05-03T08:49:46.298Z,56.77
2023-05-03T08:50:46.302Z,55.16
2023-05-03T08:51:46.313Z,55.33
2023-05-03T08:52:46.327Z,54.61
2023-05-03T08:53:46.333Z,54.98
2023-05-03T08:54:47.236Z,53.72
2023-05-03T08:55:46.355Z,54.71
2023-05-03T08:56:46.375Z,53.85
2023-05-03T08:57:46.377Z,53.58
2023-05-03T08:58:46.400Z,54.60
2023-05-03T08:59:46.394Z,56.02
2023-05-03T09:00:46.418Z,56.26
2023-05-03T09:01:46.493Z,59.38
2023-05-03T09:02:46.474Z,59.95
2023-05-03T09:03:48.860Z,59.01
2023-05-03T09:04:46.625Z,56.57
2023-05-03T09:05:46.475Z,57.04
2023-05-03T09:06:46.531Z,59.72
2023-05-03T09:07:46.504Z,56.64
2023-05-03T09:08:46.506Z,56.54
2023-05-03T09:09:47.385Z,57.15
2023-05-03T09:10:46.538Z,56.57
2023-05-03T09:11:46.553Z,56.49
2023-05-03T09:12:46.564Z,55.52
2023-05-03T09:13:46.573Z,54.19
2023-05-03T09:14:46.592Z,55.19
2023-05-03T09:15:46.599Z,53.70
2023-05-03T09:16:46.823Z,50.54
2023-05-03T09:17:46.659Z,50.59
2023-05-03T09:18:46.642Z,48.05
2023-05-03T09:19:46.658Z,48.00
2023-05-03T09:20:46.772Z,47.73
2023-05-03T09:21:46.678Z,49.58
2023-05-03T09:22:46.707Z,48.74
2023-05-03T09:23:46.710Z,49.48
2023-05-03T09:24:46.739Z,50.66
2023-05-03T09:25:46.741Z,52.53
2023-05-03T09:26:46.768Z,51.50
2023-05-03T09:27:46.784Z,52.31
2023-05-03T09:28:46.795Z,50.38
2023-05-03T09:29:46.820Z,51.50
2023-05-03T09:30:46.837Z,49.43
2023-05-03T09:31:46.919Z,47.14
2023-05-03T09:32:46.913Z,48.79
2023-05-03T09:33:46.874Z,48.57
2023-05-03T09:34:46.895Z,47.95
2023-05-03T09:35:46.910Z,48.46
2023-05-03T09:36:47.030Z,50.81
2023-05-03T09:37:46.942Z,49.82
2023-05-03T09:38:46.963Z,48.59
2023-05-03T09:39:46.990Z,49.43
2023-05-03T09:40:46.992Z,48.40
2023-05-03T09:41:47.016Z,48.67
2023-05-03T09:42:47.028Z,48.16
2023-05-03T09:43:47.083Z,48.99
2023-05-03T09:44:47.083Z,47.08
2023-05-03T09:45:47.149Z,47.94
2023-05-03T09:46:47.120Z,46.86
2023-05-03T09:47:47.141Z,46.16
2023-05-03T09:48:47.140Z,45.86
2023-05-03T09:49:47.149Z,45.98
2023-05-03T09:50:47.176Z,45.98
2023-05-03T09:51:47.191Z,46.53
2023-05-03T09:52:47.236Z,46.97
2023-05-03T09:53:47.242Z,45.45
2023-05-03T09:54:47.255Z,45.84
2023-05-03T09:55:47.273Z,46.50
2023-05-03T09:56:47.304Z,45.53
2023-05-03T09:57:47.314Z,45.39
2023-05-03T09:58:47.339Z,46.46
2023-05-03T09:59:47.356Z,44.53
2023-05-03T10:00:47.378Z,43.92
2023-05-03T10:01:47.509Z,44.31
2023-05-03T10:02:47.506Z,44.70
2023-05-03T10:03:47.493Z,45.34
2023-05-03T10:04:47.461Z,45.81
2023-05-03T10:05:47.488Z,44.52
2023-05-03T10:06:47.618Z,45.49
2023-05-03T10:07:47.525Z,44.42
2023-05-03T10:08:47.673Z,44.89
2023-05-03T10:09:47.571Z,45.37
2023-05-03T10:10:47.602Z,45.18
2023-05-03T10:11:47.613Z,44.59
2023-05-03T10:12:47.640Z,44.81
2023-05-03T10:13:47.651Z,45.98
2023-05-03T10:14:47.773Z,46.97
2023-05-03T10:15:47.707Z,44.15
2023-05-03T10:16:47.744Z,43.47
2023-05-03T10:17:48.751Z,44.93
2023-05-03T10:18:47.776Z,44.32
2023-05-03T10:19:47.796Z,44.10
2023-05-03T10:20:47.820Z,44.23
2023-05-03T10:21:47.843Z,44.18
2023-05-03T10:22:47.867Z,46.99
2023-05-03T10:23:47.900Z,46.04
2023-05-03T10:24:47.934Z,46.80
2023-05-03T10:25:47.938Z,46.95
2023-05-03T10:26:47.964Z,43.95
2023-05-03T10:27:47.990Z,45.21
2023-05-03T10:28:48.008Z,46.92
2023-05-03T10:29:48.025Z,43.49
2023-05-03T10:30:48.066Z,43.57
2023-05-03T10:31:48.482Z,45.32
2023-05-03T10:32:48.132Z,45.10
2023-05-03T10:33:48.126Z,45.12
2023-05-03T10:34:48.166Z,45.03
2023-05-03T10:35:48.194Z,45.20
2023-05-03T10:36:49.914Z,44.13
2023-05-03T10:37:48.221Z,44.90
2023-05-03T10:38:48.248Z,44.65
2023-05-03T10:39:48.267Z,45.28
2023-05-03T10:40:48.334Z,44.29
2023-05-03T10:41:48.322Z,43.12
2023-05-03T10:42:48.345Z,43.96
2023-05-03T10:43:48.388Z,44.04
2023-05-03T10:44:48.400Z,43.07
2023-05-03T10:45:48.999Z,44.24
2023-05-03T10:46:48.475Z,41.35
2023-05-03T10:47:48.491Z,45.33
2023-05-03T10:48:48.514Z,44.34
2023-05-03T10:49:48.542Z,45.20
2023-05-03T10:50:48.553Z,45.57
2023-05-03T10:51:48.580Z,46.50
2023-05-03T10:52:48.605Z,44.70
2023-05-03T10:53:48.634Z,46.02
2023-05-03T10:54:48.657Z,42.69
2023-05-03T10:55:48.673Z,42.16
2023-05-03T10:56:48.724Z,43.36
2023-05-03T10:57:48.726Z,43.42
2023-05-03T10:58:48.773Z,42.65
2023-05-03T10:59:48.777Z,44.85
2023-05-03T11:00:48.798Z,46.59
2023-05-03T11:01:48.899Z,49.90
2023-05-03T11:02:48.880Z,48.91
2023-05-03T11:03:48.903Z,48.03
2023-05-03T11:04:48.939Z,45.69
2023-05-03T11:05:48.929Z,45.06
2023-05-03T11:06:48.987Z,45.51
2023-05-03T11:07:48.971Z,45.78
2023-05-03T11:08:48.999Z,45.83
2023-05-03T11:09:49.024Z,44.71
2023-05-03T11:10:49.074Z,44.30
2023-05-03T11:11:49.088Z,42.98
2023-05-03T11:12:49.136Z,41.63
2023-05-03T11:13:49.185Z,41.95
2023-05-03T11:14:49.168Z,43.36
2023-05-03T11:15:49.180Z,42.85
2023-05-03T11:16:49.302Z,41.77
2023-05-03T11:17:49.251Z,41.62
2023-05-03T11:18:49.266Z,43.38
2023-05-03T11:19:49.288Z,43.40
2023-05-03T11:20:49.312Z,44.34
2023-05-03T11:21:49.366Z,45.56
2023-05-03T11:22:49.368Z,45.71
2023-05-03T11:23:49.392Z,44.69
2023-05-03T11:24:49.417Z,43.11
2023-05-03T11:25:49.452Z,41.28
2023-05-03T11:26:49.466Z,43.27
2023-05-03T11:27:49.534Z,43.27
2023-05-03T11:28:49.586Z,44.93
2023-05-03T11:29:49.552Z,43.66
2023-05-03T11:30:49.565Z,44.34
2023-05-03T11:31:49.658Z,44.62
2023-05-03T11:32:49.670Z,41.42
2023-05-03T11:33:49.659Z,44.66
2023-05-03T11:34:49.674Z,43.78
2023-05-03T11:35:49.735Z,42.79
2023-05-03T11:36:49.729Z,42.40
2023-05-03T11:37:49.772Z,45.67
2023-05-03T11:38:50.391Z,44.48
2023-05-03T11:39:49.816Z,44.33
2023-05-03T11:40:49.833Z,42.56
2023-05-03T11:41:49.907Z,41.42
2023-05-03T11:42:49.890Z,42.60
2023-05-03T11:44:00.506Z,42.53
2023-05-03T11:44:50.006Z,44.09
2023-05-03T11:45:49.994Z,44.26
2023-05-03T11:46:50.069Z,42.60
2023-05-03T11:47:50.125Z,41.65
2023-05-03T11:48:50.062Z,42.76
2023-05-03T11:49:50.083Z,42.30
2023-05-03T11:50:50.108Z,43.91
2023-05-03T11:51:52.814Z,42.43
2023-05-03T11:52:50.163Z,42.94
2023-05-03T11:53:50.186Z,41.19
2023-05-03T11:54:50.212Z,43.99
2023-05-03T11:55:50.254Z,42.70
2023-05-03T11:56:51.412Z,40.56
2023-05-03T11:57:50.307Z,41.46
2023-05-03T11:58:50.330Z,43.11
2023-05-03T11:59:50.356Z,41.55
2023-05-03T12:00:50.499Z,40.72
2023-05-03T12:01:50.438Z,39.92
2023-05-03T12:02:50.779Z,41.85
2023-05-03T12:03:50.635Z,41.56
2023-05-03T12:04:50.790Z,42.30
2023-05-03T12:05:50.710Z,41.31
2023-05-03T12:06:50.796Z,43.52
2023-05-03T12:07:50.893Z,43.76
2023-05-03T12:08:50.831Z,45.12
2023-05-03T12:10:05.848Z,47.01
2023-05-03T12:10:53.195Z,46.14
2023-05-03T12:11:52.052Z,44.73
2023-05-03T12:12:53.124Z,43.02
2023-05-03T12:13:51.367Z,43.44
2023-05-03T12:14:51.101Z,43.15
2023-05-03T12:16:06.592Z,41.99
2023-05-03T12:16:51.406Z,43.70
2023-05-03T12:17:51.442Z,41.73
2023-05-03T12:18:51.370Z,41.44
2023-05-03T12:19:51.017Z,42.14
2023-05-03T12:21:30.506Z,43.38
2023-05-03T12:22:04.513Z,44.26
2023-05-03T12:22:51.747Z,43.07
2023-05-03T12:23:51.142Z,45.97
2023-05-03T12:24:53.416Z,44.45
2023-05-03T12:25:52.852Z,42.87
2023-05-03T12:26:52.678Z,43.61
2023-05-03T12:28:10.604Z,44.34
2023-05-03T12:28:51.224Z,45.86
2023-05-03T12:29:51.942Z,42.99
2023-05-03T12:30:53.196Z,42.76
2023-05-03T12:31:51.297Z,41.73
2023-05-03T12:32:51.520Z,41.61
2023-05-03T12:34:52.228Z,41.67
2023-05-03T12:35:53.147Z,43.11
2023-05-03T12:36:53.975Z,41.26
2023-05-03T12:37:51.470Z,41.03
2023-05-03T12:38:55.004Z,41.56
2023-05-03T12:40:00.651Z,42.26
2023-05-03T12:40:51.521Z,44.48
2023-05-03T12:42:06.986Z,44.81
2023-05-03T12:42:51.524Z,43.05
2023-05-03T12:43:52.541Z,43.70
2023-05-03T12:44:53.620Z,41.83
2023-05-03T12:46:08.558Z,43.16
2023-05-03T12:46:53.326Z,40.99
2023-05-03T12:47:51.844Z,41.28
2023-05-03T12:49:52.385Z,41.55
2023-05-03T12:50:52.219Z,42.48
2023-05-03T12:52:06.659Z,41.41
2023-05-03T12:52:53.067Z,41.41
2023-05-03T12:53:55.240Z,43.23
2023-05-03T12:54:55.274Z,40.96
2023-05-03T12:55:52.209Z,41.25